sensor_id;sensor_type;location;lat;lon;timestamp;temperature;humidity
66936;DHT22;53847;51.984;5.896;2022-09-03T00:02:25;19.50;46.20
66936;DHT22;53847;51.984;5.896;2022-09-03T00:05:04;19.60;46.40
66936;DHT22;53847;51.984;5.896;2022-09-03T00:07:38;19.50;46.50
66936;DHT22;53847;51.984;5.896;2022-09-03T00:10:13;19.30;46.50
66936;DHT22;53847;51.984;5.896;2022-09-03T00:12:43;19.10;46.50
66936;DHT22;53847;51.984;5.896;2022-09-03T00:15:19;19.50;46.80
66936;DHT22;53847;51.984;5.896;2022-09-03T00:17:53;18.70;46.50
66936;DHT22;53847;51.984;5.896;2022-09-03T00:20:28;19.00;46.90
66936;DHT22;53847;51.984;5.896;2022-09-03T00:22:58;19.00;46.90
66936;DHT22;53847;51.984;5.896;2022-09-03T00:25:51;18.90;47.00
66936;DHT22;53847;51.984;5.896;2022-09-03T00:31:12;19.00;47.20
66936;DHT22;53847;51.984;5.896;2022-09-03T00:33:41;18.80;47.20
66936;DHT22;53847;51.984;5.896;2022-09-03T00:38:41;19.10;47.50
66936;DHT22;53847;51.984;5.896;2022-09-03T00:46:56;18.70;47.50
66936;DHT22;53847;51.984;5.896;2022-09-03T01:00:59;19.00;48.00
66936;DHT22;53847;51.984;5.896;2022-09-03T01:03:42;18.90;48.00
66936;DHT22;53847;51.984;5.896;2022-09-03T01:06:37;18.90;48.20
66936;DHT22;53847;51.984;5.896;2022-09-03T01:09:24;18.60;48.00
66936;DHT22;53847;51.984;5.896;2022-09-03T01:20:11;18.70;48.50
66936;DHT22;53847;51.984;5.896;2022-09-03T01:30:42;18.30;48.90
66936;DHT22;53847;51.984;5.896;2022-09-03T01:33:34;18.10;49.00
66936;DHT22;53847;51.984;5.896;2022-09-03T01:36:22;18.30;49.10
66936;DHT22;53847;51.984;5.896;2022-09-03T01:38:54;18.40;49.30
66936;DHT22;53847;51.984;5.896;2022-09-03T01:44:20;17.80;49.00
66936;DHT22;53847;51.984;5.896;2022-09-03T01:47:04;18.20;49.40
66936;DHT22;53847;51.984;5.896;2022-09-03T01:49:41;18.10;49.40
66936;DHT22;53847;51.984;5.896;2022-09-03T01:52:24;18.10;49.50
66936;DHT22;53847;51.984;5.896;2022-09-03T01:55:17;18.00;49.60
66936;DHT22;53847;51.984;5.896;2022-09-03T02:00:39;17.90;49.60
66936;DHT22;53847;51.984;5.896;2022-09-03T02:03:09;17.90;50.00
66936;DHT22;53847;51.984;5.896;2022-09-03T02:05:36;17.90;49.80
66936;DHT22;53847;51.984;5.896;2022-09-03T02:08:04;18.00;50.00
66936;DHT22;53847;51.984;5.896;2022-09-03T02:10:49;17.90;50.00
66936;DHT22;53847;51.984;5.896;2022-09-03T02:13:40;17.50;49.80
66936;DHT22;53847;51.984;5.896;2022-09-03T02:16:11;17.80;50.10
66936;DHT22;53847;51.984;5.896;2022-09-03T02:19:00;17.90;50.20
66936;DHT22;53847;51.984;5.896;2022-09-03T02:21:33;17.70;50.20
66936;DHT22;53847;51.984;5.896;2022-09-03T02:24:00;17.70;50.40
66936;DHT22;53847;51.984;5.896;2022-09-03T02:26:27;17.70;50.40
66936;DHT22;53847;51.984;5.896;2022-09-03T02:28:54;17.70;50.50
66936;DHT22;53847;51.984;5.896;2022-09-03T02:31:21;17.80;50.60
66936;DHT22;53847;51.984;5.896;2022-09-03T02:33:49;17.60;50.70
66936;DHT22;53847;51.984;5.896;2022-09-03T02:36:20;17.60;50.80
66936;DHT22;53847;51.984;5.896;2022-09-03T02:38:52;17.60;50.90
66936;DHT22;53847;51.984;5.896;2022-09-03T02:41:18;17.80;51.00
66936;DHT22;53847;51.984;5.896;2022-09-03T02:43:55;17.50;51.00
66936;DHT22;53847;51.984;5.896;2022-09-03T02:46:30;17.50;51.10
66936;DHT22;53847;51.984;5.896;2022-09-03T02:48:58;17.40;51.10
66936;DHT22;53847;51.984;5.896;2022-09-03T02:51:24;17.80;51.30
66936;DHT22;53847;51.984;5.896;2022-09-03T02:53:50;17.40;51.10
66936;DHT22;53847;51.984;5.896;2022-09-03T02:56:16;17.60;51.40
66936;DHT22;53847;51.984;5.896;2022-09-03T02:58:42;17.40;51.20
66936;DHT22;53847;51.984;5.896;2022-09-03T03:01:08;16.90;51.10
66936;DHT22;53847;51.984;5.896;2022-09-03T03:03:34;17.30;51.30
66936;DHT22;53847;51.984;5.896;2022-09-03T03:06:02;17.30;51.40
66936;DHT22;53847;51.984;5.896;2022-09-03T03:08:29;17.30;51.40
66936;DHT22;53847;51.984;5.896;2022-09-03T03:10:58;17.30;51.50
66936;DHT22;53847;51.984;5.896;2022-09-03T03:13:27;17.60;52.20
66936;DHT22;53847;51.984;5.896;2022-09-03T03:16:03;16.80;51.30
66936;DHT22;53847;51.984;5.896;2022-09-03T03:18:29;17.60;51.80
66936;DHT22;53847;51.984;5.896;2022-09-03T03:20:55;17.20;51.70
66936;DHT22;53847;51.984;5.896;2022-09-03T03:23:21;17.10;51.70
66936;DHT22;53847;51.984;5.896;2022-09-03T03:25:47;17.30;51.80
66936;DHT22;53847;51.984;5.896;2022-09-03T03:28:13;17.20;51.80
66936;DHT22;53847;51.984;5.896;2022-09-03T03:30:40;17.20;52.00
66936;DHT22;53847;51.984;5.896;2022-09-03T03:33:06;17.10;52.00
66936;DHT22;53847;51.984;5.896;2022-09-03T03:35:32;17.00;51.90
66936;DHT22;53847;51.984;5.896;2022-09-03T03:37:58;17.10;52.20
66936;DHT22;53847;51.984;5.896;2022-09-03T03:40:25;17.00;52.10
66936;DHT22;53847;51.984;5.896;2022-09-03T03:42:51;17.10;52.00
66936;DHT22;53847;51.984;5.896;2022-09-03T03:45:17;17.40;52.30
66936;DHT22;53847;51.984;5.896;2022-09-03T03:47:43;17.00;52.20
66936;DHT22;53847;51.984;5.896;2022-09-03T03:50:09;16.70;52.10
66936;DHT22;53847;51.984;5.896;2022-09-03T03:52:35;16.90;52.50
66936;DHT22;53847;51.984;5.896;2022-09-03T03:55:01;16.90;52.50
66936;DHT22;53847;51.984;5.896;2022-09-03T03:57:29;16.90;52.60
66936;DHT22;53847;51.984;5.896;2022-09-03T03:59:55;16.60;52.50
66936;DHT22;53847;51.984;5.896;2022-09-03T04:02:21;17.20;52.90
66936;DHT22;53847;51.984;5.896;2022-09-03T04:04:47;16.80;52.80
66936;DHT22;53847;51.984;5.896;2022-09-03T04:07:14;16.80;52.70
66936;DHT22;53847;51.984;5.896;2022-09-03T04:09:40;16.80;52.80
66936;DHT22;53847;51.984;5.896;2022-09-03T04:12:06;17.10;53.10
66936;DHT22;53847;51.984;5.896;2022-09-03T04:14:32;17.10;53.00
66936;DHT22;53847;51.984;5.896;2022-09-03T04:16:58;17.00;53.00
66936;DHT22;53847;51.984;5.896;2022-09-03T04:19:24;16.70;52.90
66936;DHT22;53847;51.984;5.896;2022-09-03T04:21:50;16.70;53.00
66936;DHT22;53847;51.984;5.896;2022-09-03T04:24:16;16.90;53.20
66936;DHT22;53847;51.984;5.896;2022-09-03T04:26:42;16.50;53.10
66936;DHT22;53847;51.984;5.896;2022-09-03T04:29:09;16.90;53.30
66936;DHT22;53847;51.984;5.896;2022-09-03T04:31:36;16.60;53.20
66936;DHT22;53847;51.984;5.896;2022-09-03T04:34:03;16.20;53.10
66936;DHT22;53847;51.984;5.896;2022-09-03T04:36:29;16.60;53.30
66936;DHT22;53847;51.984;5.896;2022-09-03T04:38:58;16.50;53.40
66936;DHT22;53847;51.984;5.896;2022-09-03T04:41:26;16.50;53.50
66936;DHT22;53847;51.984;5.896;2022-09-03T04:43:54;16.50;53.60
66936;DHT22;53847;51.984;5.896;2022-09-03T04:46:22;16.40;53.60
66936;DHT22;53847;51.984;5.896;2022-09-03T04:48:50;16.50;53.60
66936;DHT22;53847;51.984;5.896;2022-09-03T04:51:23;16.20;53.50
66936;DHT22;53847;51.984;5.896;2022-09-03T04:53:56;16.20;53.50
66936;DHT22;53847;51.984;5.896;2022-09-03T04:56:29;16.20;53.60
66936;DHT22;53847;51.984;5.896;2022-09-03T04:59:01;16.00;53.60
66936;DHT22;53847;51.984;5.896;2022-09-03T05:01:30;16.40;53.80
66936;DHT22;53847;51.984;5.896;2022-09-03T05:03:57;16.00;53.60
66936;DHT22;53847;51.984;5.896;2022-09-03T05:06:24;16.20;53.80
66936;DHT22;53847;51.984;5.896;2022-09-03T05:08:51;16.30;53.90
66936;DHT22;53847;51.984;5.896;2022-09-03T05:11:18;16.10;53.80
66936;DHT22;53847;51.984;5.896;2022-09-03T05:13:48;16.40;54.00
66936;DHT22;53847;51.984;5.896;2022-09-03T05:16:15;16.30;53.90
66936;DHT22;53847;51.984;5.896;2022-09-03T05:18:42;16.30;53.90
66936;DHT22;53847;51.984;5.896;2022-09-03T05:21:13;16.50;54.10
66936;DHT22;53847;51.984;5.896;2022-09-03T05:23:44;16.20;53.90
66936;DHT22;53847;51.984;5.896;2022-09-03T05:26:16;16.30;54.00
66936;DHT22;53847;51.984;5.896;2022-09-03T05:28:44;16.20;54.00
66936;DHT22;53847;51.984;5.896;2022-09-03T05:31:13;16.20;54.00
66936;DHT22;53847;51.984;5.896;2022-09-03T05:33:44;16.20;54.00
66936;DHT22;53847;51.984;5.896;2022-09-03T05:36:14;16.20;54.00
66936;DHT22;53847;51.984;5.896;2022-09-03T05:38:41;16.30;54.00
66936;DHT22;53847;51.984;5.896;2022-09-03T05:41:09;16.60;54.20
66936;DHT22;53847;51.984;5.896;2022-09-03T05:43:36;16.30;53.90
66936;DHT22;53847;51.984;5.896;2022-09-03T05:46:10;16.30;53.90
66936;DHT22;53847;51.984;5.896;2022-09-03T05:48:37;16.50;54.00
66936;DHT22;53847;51.984;5.896;2022-09-03T05:51:09;16.20;53.80
66936;DHT22;53847;51.984;5.896;2022-09-03T05:53:37;16.10;53.80
66936;DHT22;53847;51.984;5.896;2022-09-03T05:56:06;16.40;53.80
66936;DHT22;53847;51.984;5.896;2022-09-03T05:58:41;16.40;53.80
66936;DHT22;53847;51.984;5.896;2022-09-03T06:01:22;16.50;53.90
66936;DHT22;53847;51.984;5.896;2022-09-03T06:04:11;16.70;54.00
66936;DHT22;53847;51.984;5.896;2022-09-03T06:06:39;17.00;53.60
66936;DHT22;53847;51.984;5.896;2022-09-03T06:09:12;17.70;53.00
66936;DHT22;53847;51.984;5.896;2022-09-03T06:11:48;17.70;51.90
66936;DHT22;53847;51.984;5.896;2022-09-03T06:14:14;18.10;51.50
66936;DHT22;53847;51.984;5.896;2022-09-03T06:16:45;18.40;50.40
66936;DHT22;53847;51.984;5.896;2022-09-03T06:19:12;18.90;49.90
66936;DHT22;53847;51.984;5.896;2022-09-03T06:21:39;18.70;49.60
66936;DHT22;53847;51.984;5.896;2022-09-03T06:24:06;19.00;49.20
66936;DHT22;53847;51.984;5.896;2022-09-03T06:26:34;19.20;48.90
66936;DHT22;53847;51.984;5.896;2022-09-03T06:29:00;19.40;48.20
66936;DHT22;53847;51.984;5.896;2022-09-03T06:31:27;19.30;47.80
66936;DHT22;53847;51.984;5.896;2022-09-03T06:33:53;20.10;47.70
66936;DHT22;53847;51.984;5.896;2022-09-03T06:36:20;19.90;47.30
66936;DHT22;53847;51.984;5.896;2022-09-03T06:38:46;20.30;47.10
66936;DHT22;53847;51.984;5.896;2022-09-03T06:41:18;20.30;46.80
66936;DHT22;53847;51.984;5.896;2022-09-03T06:43:45;20.50;46.70
66936;DHT22;53847;51.984;5.896;2022-09-03T06:46:16;20.90;46.10
66936;DHT22;53847;51.984;5.896;2022-09-03T06:48:43;20.30;46.30
66936;DHT22;53847;51.984;5.896;2022-09-03T06:51:13;20.90;46.30
66936;DHT22;53847;51.984;5.896;2022-09-03T06:53:42;21.40;46.00
66936;DHT22;53847;51.984;5.896;2022-09-03T06:56:13;21.00;45.20
66936;DHT22;53847;51.984;5.896;2022-09-03T06:58:45;21.20;44.50
66936;DHT22;53847;51.984;5.896;2022-09-03T07:01:12;21.60;44.40
66936;DHT22;53847;51.984;5.896;2022-09-03T07:03:40;21.80;44.30
66936;DHT22;53847;51.984;5.896;2022-09-03T07:06:09;21.80;43.80
66936;DHT22;53847;51.984;5.896;2022-09-03T07:08:35;21.90;43.30
66936;DHT22;53847;51.984;5.896;2022-09-03T07:11:05;21.60;43.20
66936;DHT22;53847;51.984;5.896;2022-09-03T07:13:32;22.00;43.20
66936;DHT22;53847;51.984;5.896;2022-09-03T07:16:00;22.10;43.20
66936;DHT22;53847;51.984;5.896;2022-09-03T07:18:27;22.10;42.90
66936;DHT22;53847;51.984;5.896;2022-09-03T07:20:57;22.20;43.20
66936;DHT22;53847;51.984;5.896;2022-09-03T07:23:24;22.20;43.50
66936;DHT22;53847;51.984;5.896;2022-09-03T07:25:54;23.00;44.00
66936;DHT22;53847;51.984;5.896;2022-09-03T07:28:21;22.40;43.10
66936;DHT22;53847;51.984;5.896;2022-09-03T07:30:47;22.60;43.10
66936;DHT22;53847;51.984;5.896;2022-09-03T07:33:13;22.90;43.00
66936;DHT22;53847;51.984;5.896;2022-09-03T07:35:39;22.70;42.70
66936;DHT22;53847;51.984;5.896;2022-09-03T07:38:05;23.20;42.90
66936;DHT22;53847;51.984;5.896;2022-09-03T07:40:31;23.30;42.50
66936;DHT22;53847;51.984;5.896;2022-09-03T07:42:57;23.10;42.50
66936;DHT22;53847;51.984;5.896;2022-09-03T07:45:24;23.40;42.60
66936;DHT22;53847;51.984;5.896;2022-09-03T07:47:50;23.40;42.00
66936;DHT22;53847;51.984;5.896;2022-09-03T07:50:16;23.50;41.80
66936;DHT22;53847;51.984;5.896;2022-09-03T07:52:42;23.50;41.00
66936;DHT22;53847;51.984;5.896;2022-09-03T07:55:09;23.30;40.70
66936;DHT22;53847;51.984;5.896;2022-09-03T07:57:35;23.40;41.10
66936;DHT22;53847;51.984;5.896;2022-09-03T08:00:02;23.20;41.40
66936;DHT22;53847;51.984;5.896;2022-09-03T08:02:37;22.60;41.50
66936;DHT22;53847;51.984;5.896;2022-09-03T08:05:04;22.40;41.80
66936;DHT22;53847;51.984;5.896;2022-09-03T08:07:30;21.90;42.00
66936;DHT22;53847;51.984;5.896;2022-09-03T08:09:56;21.90;42.20
66936;DHT22;53847;51.984;5.896;2022-09-03T08:12:23;22.00;42.90
66936;DHT22;53847;51.984;5.896;2022-09-03T08:14:50;21.90;43.40
66936;DHT22;53847;51.984;5.896;2022-09-03T08:17:16;21.60;43.60
66936;DHT22;53847;51.984;5.896;2022-09-03T08:19:42;21.10;43.70
66936;DHT22;53847;51.984;5.896;2022-09-03T08:22:08;21.30;44.20
66936;DHT22;53847;51.984;5.896;2022-09-03T08:24:34;21.30;44.20
66936;DHT22;53847;51.984;5.896;2022-09-03T08:27:00;21.20;44.40
66936;DHT22;53847;51.984;5.896;2022-09-03T08:29:26;21.40;44.40
66936;DHT22;53847;51.984;5.896;2022-09-03T08:31:52;21.30;44.70
66936;DHT22;53847;51.984;5.896;2022-09-03T08:34:19;21.20;44.60
66936;DHT22;53847;51.984;5.896;2022-09-03T08:36:45;21.10;44.60
66936;DHT22;53847;51.984;5.896;2022-09-03T08:39:12;20.90;44.50
66936;DHT22;53847;51.984;5.896;2022-09-03T08:49:56;21.30;44.40
66936;DHT22;53847;51.984;5.896;2022-09-03T08:58:14;21.40;44.20
66936;DHT22;53847;51.984;5.896;2022-09-03T09:00:59;21.10;44.00
66936;DHT22;53847;51.984;5.896;2022-09-03T09:24:59;22.60;43.50
66936;DHT22;53847;51.984;5.896;2022-09-03T09:30:18;22.20;43.10
66936;DHT22;53847;51.984;5.896;2022-09-03T09:32:47;22.50;43.10
66936;DHT22;53847;51.984;5.896;2022-09-03T09:35:14;22.20;42.90
66936;DHT22;53847;51.984;5.896;2022-09-03T09:37:53;22.70;43.20
66936;DHT22;53847;51.984;5.896;2022-09-03T09:43:16;22.60;42.90
66936;DHT22;53847;51.984;5.896;2022-09-03T09:45:45;22.60;42.60
66936;DHT22;53847;51.984;5.896;2022-09-03T09:51:30;22.90;42.50
66936;DHT22;53847;51.984;5.896;2022-09-03T09:56:29;22.80;42.40
66936;DHT22;53847;51.984;5.896;2022-09-03T09:59:22;23.10;42.50
66936;DHT22;53847;51.984;5.896;2022-09-03T10:01:48;23.10;42.30
66936;DHT22;53847;51.984;5.896;2022-09-03T10:04:28;23.20;42.10
66936;DHT22;53847;51.984;5.896;2022-09-03T10:09:32;23.30;41.50
66936;DHT22;53847;51.984;5.896;2022-09-03T10:12:27;23.50;41.60
66936;DHT22;53847;51.984;5.896;2022-09-03T10:17:38;23.20;41.10
66936;DHT22;53847;51.984;5.896;2022-09-03T10:25:29;23.60;41.10
66936;DHT22;53847;51.984;5.896;2022-09-03T10:27:59;23.70;41.00
66936;DHT22;53847;51.984;5.896;2022-09-03T10:30:25;23.80;41.10
66936;DHT22;53847;51.984;5.896;2022-09-03T10:33:13;23.80;40.80
66936;DHT22;53847;51.984;5.896;2022-09-03T10:35:46;23.80;40.40
66936;DHT22;53847;51.984;5.896;2022-09-03T10:38:31;23.70;40.10
66936;DHT22;53847;51.984;5.896;2022-09-03T10:46:09;24.20;40.20
66936;DHT22;53847;51.984;5.896;2022-09-03T10:48:55;24.20;40.10
66936;DHT22;53847;51.984;5.896;2022-09-03T10:51:41;24.30;40.00
66936;DHT22;53847;51.984;5.896;2022-09-03T10:57:34;24.70;40.30
66936;DHT22;53847;51.984;5.896;2022-09-03T11:00:05;24.80;39.90
66936;DHT22;53847;51.984;5.896;2022-09-03T11:05:28;24.90;39.70
66936;DHT22;53847;51.984;5.896;2022-09-03T11:08:06;24.80;39.40
66936;DHT22;53847;51.984;5.896;2022-09-03T11:10:40;24.60;39.20
66936;DHT22;53847;51.984;5.896;2022-09-03T11:13:42;24.50;39.30
66936;DHT22;53847;51.984;5.896;2022-09-03T11:16:17;25.20;39.60
66936;DHT22;53847;51.984;5.896;2022-09-03T11:18:52;24.60;39.20
66936;DHT22;53847;51.984;5.896;2022-09-03T11:21:25;25.00;39.10
66936;DHT22;53847;51.984;5.896;2022-09-03T11:24:49;25.00;38.80
66936;DHT22;53847;51.984;5.896;2022-09-03T11:29:51;25.30;38.90
66936;DHT22;53847;51.984;5.896;2022-09-03T11:32:24;25.20;38.60
66936;DHT22;53847;51.984;5.896;2022-09-03T11:34:54;25.10;38.50
66936;DHT22;53847;51.984;5.896;2022-09-03T11:40:14;25.30;38.60
66936;DHT22;53847;51.984;5.896;2022-09-03T11:42:42;25.00;39.10
66936;DHT22;53847;51.984;5.896;2022-09-03T11:47:51;25.40;38.30
66936;DHT22;53847;51.984;5.896;2022-09-03T11:50:24;25.50;38.40
66936;DHT22;53847;51.984;5.896;2022-09-03T11:53:10;25.50;38.50
66936;DHT22;53847;51.984;5.896;2022-09-03T11:56:15;25.60;38.60
66936;DHT22;53847;51.984;5.896;2022-09-03T11:58:42;25.80;38.50
66936;DHT22;53847;51.984;5.896;2022-09-03T12:01:19;25.70;38.00
66936;DHT22;53847;51.984;5.896;2022-09-03T12:04:09;25.50;37.70
66936;DHT22;53847;51.984;5.896;2022-09-03T12:18:23;25.70;38.00
66936;DHT22;53847;51.984;5.896;2022-09-03T12:23:38;26.20;37.80
66936;DHT22;53847;51.984;5.896;2022-09-03T12:26:06;25.80;37.60
66936;DHT22;53847;51.984;5.896;2022-09-03T12:28:36;26.20;37.50
66936;DHT22;53847;51.984;5.896;2022-09-03T12:31:17;26.20;37.50
66936;DHT22;53847;51.984;5.896;2022-09-03T12:33:44;26.20;37.60
66936;DHT22;53847;51.984;5.896;2022-09-03T12:36:10;26.30;37.60
66936;DHT22;53847;51.984;5.896;2022-09-03T12:38:38;26.30;37.60
66936;DHT22;53847;51.984;5.896;2022-09-03T12:41:04;26.50;37.70
66936;DHT22;53847;51.984;5.896;2022-09-03T12:43:31;26.20;37.10
66936;DHT22;53847;51.984;5.896;2022-09-03T12:45:57;26.50;37.20
66936;DHT22;53847;51.984;5.896;2022-09-03T12:48:23;26.10;37.00
66936;DHT22;53847;51.984;5.896;2022-09-03T12:51:01;26.80;38.20
66936;DHT22;53847;51.984;5.896;2022-09-03T12:53:28;26.50;37.30
66936;DHT22;53847;51.984;5.896;2022-09-03T12:55:57;26.50;37.20
66936;DHT22;53847;51.984;5.896;2022-09-03T12:58:52;26.50;37.30
66936;DHT22;53847;51.984;5.896;2022-09-03T13:01:27;26.20;37.00
66936;DHT22;53847;51.984;5.896;2022-09-03T13:04:09;26.50;37.30
66936;DHT22;53847;51.984;5.896;2022-09-03T13:06:52;26.60;37.40
66936;DHT22;53847;51.984;5.896;2022-09-03T13:09:22;26.40;37.40
66936;DHT22;53847;51.984;5.896;2022-09-03T13:11:48;26.70;37.60
66936;DHT22;53847;51.984;5.896;2022-09-03T13:14:15;26.80;37.70
66936;DHT22;53847;51.984;5.896;2022-09-03T13:32:51;26.80;37.80
66936;DHT22;53847;51.984;5.896;2022-09-03T13:41:11;27.00;38.10
66936;DHT22;53847;51.984;5.896;2022-09-03T13:43:57;27.00;38.00
66936;DHT22;53847;51.984;5.896;2022-09-03T13:46:31;27.20;38.10
66936;DHT22;53847;51.984;5.896;2022-09-03T13:51:58;27.20;37.80
66936;DHT22;53847;51.984;5.896;2022-09-03T13:54:36;26.80;37.30
66936;DHT22;53847;51.984;5.896;2022-09-03T14:00:12;27.20;37.50
66936;DHT22;53847;51.984;5.896;2022-09-03T14:02:57;26.80;37.20
66936;DHT22;53847;51.984;5.896;2022-09-03T14:05:49;27.30;37.80
66936;DHT22;53847;51.984;5.896;2022-09-03T14:08:41;27.40;37.60
66936;DHT22;53847;51.984;5.896;2022-09-03T14:11:31;27.30;37.50
66936;DHT22;53847;51.984;5.896;2022-09-03T14:14:20;27.30;37.40
66936;DHT22;53847;51.984;5.896;2022-09-03T14:16:58;27.60;37.60
66936;DHT22;53847;51.984;5.896;2022-09-03T14:19:54;27.30;37.60
66936;DHT22;53847;51.984;5.896;2022-09-03T14:22:52;27.40;37.40
66936;DHT22;53847;51.984;5.896;2022-09-03T14:25:22;27.50;37.10
66936;DHT22;53847;51.984;5.896;2022-09-03T14:27:51;27.60;37.00
66936;DHT22;53847;51.984;5.896;2022-09-03T14:30:29;27.40;36.80
66936;DHT22;53847;51.984;5.896;2022-09-03T14:33:14;27.50;36.70
66936;DHT22;53847;51.984;5.896;2022-09-03T14:35:47;27.50;36.70
66936;DHT22;53847;51.984;5.896;2022-09-03T14:38:30;27.50;36.80
66936;DHT22;53847;51.984;5.896;2022-09-03T14:41:17;27.40;36.50
66936;DHT22;53847;51.984;5.896;2022-09-03T14:49:52;27.80;36.60
66936;DHT22;53847;51.984;5.896;2022-09-03T15:11:19;27.70;36.20
66936;DHT22;53847;51.984;5.896;2022-09-03T15:14:08;27.70;35.80
66936;DHT22;53847;51.984;5.896;2022-09-03T15:19:26;27.70;35.80
66936;DHT22;53847;51.984;5.896;2022-09-03T15:30:51;27.40;35.80
66936;DHT22;53847;51.984;5.896;2022-09-03T15:33:32;27.90;36.00
66936;DHT22;53847;51.984;5.896;2022-09-03T15:38:42;27.90;36.70
66936;DHT22;53847;51.984;5.896;2022-09-03T15:41:27;27.50;35.80
66936;DHT22;53847;51.984;5.896;2022-09-03T15:43:58;27.60;35.90
66936;DHT22;53847;51.984;5.896;2022-09-03T15:52:29;27.50;35.50
66936;DHT22;53847;51.984;5.896;2022-09-03T15:57:32;27.60;35.40
66936;DHT22;53847;51.984;5.896;2022-09-03T16:00:10;27.40;35.40
66936;DHT22;53847;51.984;5.896;2022-09-03T16:02:57;27.40;35.60
66936;DHT22;53847;51.984;5.896;2022-09-03T16:11:31;27.40;35.90
66936;DHT22;53847;51.984;5.896;2022-09-03T16:16:22;27.40;35.80
66936;DHT22;53847;51.984;5.896;2022-09-03T16:19:09;27.30;35.70
66936;DHT22;53847;51.984;5.896;2022-09-03T16:21:57;27.70;36.10
66936;DHT22;53847;51.984;5.896;2022-09-03T16:27:21;27.30;35.90
66936;DHT22;53847;51.984;5.896;2022-09-03T16:30:11;27.30;36.00
66936;DHT22;53847;51.984;5.896;2022-09-03T16:36:21;27.20;36.10
66936;DHT22;53847;51.984;5.896;2022-09-03T16:39:02;27.40;36.30
66936;DHT22;53847;51.984;5.896;2022-09-03T16:50:24;27.10;36.40
66936;DHT22;53847;51.984;5.896;2022-09-03T16:55:56;27.10;36.40
66936;DHT22;53847;51.984;5.896;2022-09-03T17:04:22;27.10;37.70
66936;DHT22;53847;51.984;5.896;2022-09-03T17:07:03;27.00;37.90
66936;DHT22;53847;51.984;5.896;2022-09-03T17:12:43;26.90;38.50
66936;DHT22;53847;51.984;5.896;2022-09-03T17:15:37;26.90;38.90
66936;DHT22;53847;51.984;5.896;2022-09-03T17:35:35;26.40;40.00
66936;DHT22;53847;51.984;5.896;2022-09-03T17:44:11;26.60;40.90
66936;DHT22;53847;51.984;5.896;2022-09-03T17:50:30;25.90;40.50
66936;DHT22;53847;51.984;5.896;2022-09-03T17:53:07;26.50;41.10
66936;DHT22;53847;51.984;5.896;2022-09-03T17:55:37;26.20;41.10
66936;DHT22;53847;51.984;5.896;2022-09-03T17:58:16;26.20;41.30
66936;DHT22;53847;51.984;5.896;2022-09-03T18:01:01;25.70;41.10
66936;DHT22;53847;51.984;5.896;2022-09-03T18:03:48;26.00;41.50
66936;DHT22;53847;51.984;5.896;2022-09-03T18:11:49;25.80;41.70
66936;DHT22;53847;51.984;5.896;2022-09-03T18:14:29;25.40;42.00
66936;DHT22;53847;51.984;5.896;2022-09-03T18:17:26;25.60;42.30
66936;DHT22;53847;51.984;5.896;2022-09-03T18:20:12;25.60;42.30
66936;DHT22;53847;51.984;5.896;2022-09-03T18:25:09;25.50;42.60
66936;DHT22;53847;51.984;5.896;2022-09-03T18:30:09;25.40;42.60
66936;DHT22;53847;51.984;5.896;2022-09-03T18:32:36;25.10;42.60
66936;DHT22;53847;51.984;5.896;2022-09-03T18:35:02;25.30;42.70
66936;DHT22;53847;51.984;5.896;2022-09-03T18:37:28;25.20;42.80
66936;DHT22;53847;51.984;5.896;2022-09-03T18:39:54;25.30;43.10
66936;DHT22;53847;51.984;5.896;2022-09-03T18:42:44;25.20;43.10
66936;DHT22;53847;51.984;5.896;2022-09-03T18:45:46;25.20;43.20
66936;DHT22;53847;51.984;5.896;2022-09-03T18:50:54;25.10;43.30
66936;DHT22;53847;51.984;5.896;2022-09-03T18:54:03;25.10;43.30
66936;DHT22;53847;51.984;5.896;2022-09-03T18:59:20;24.90;43.40
66936;DHT22;53847;51.984;5.896;2022-09-03T19:01:50;24.90;43.60
66936;DHT22;53847;51.984;5.896;2022-09-03T19:07:10;24.80;43.70
66936;DHT22;53847;51.984;5.896;2022-09-03T19:10:32;24.70;43.80
66936;DHT22;53847;51.984;5.896;2022-09-03T19:12:46;24.70;43.80
66936;DHT22;53847;51.984;5.896;2022-09-03T19:15:21;24.70;43.90
66936;DHT22;53847;51.984;5.896;2022-09-03T19:20:30;24.60;44.00
66936;DHT22;53847;51.984;5.896;2022-09-03T19:22:57;24.50;44.00
66936;DHT22;53847;51.984;5.896;2022-09-03T19:25:25;24.60;44.40
66936;DHT22;53847;51.984;5.896;2022-09-03T19:36:26;24.20;44.90
66936;DHT22;53847;51.984;5.896;2022-09-03T19:41:44;24.00;45.40
66936;DHT22;53847;51.984;5.896;2022-09-03T19:47:01;23.90;45.70
66936;DHT22;53847;51.984;5.896;2022-09-03T19:54:40;23.80;45.70
66936;DHT22;53847;51.984;5.896;2022-09-03T19:57:10;23.40;45.60
66936;DHT22;53847;51.984;5.896;2022-09-03T19:59:40;23.40;45.80
66936;DHT22;53847;51.984;5.896;2022-09-03T20:02:06;23.60;46.00
66936;DHT22;53847;51.984;5.896;2022-09-03T20:04:51;23.60;46.10
66936;DHT22;53847;51.984;5.896;2022-09-03T20:07:19;23.50;46.30
66936;DHT22;53847;51.984;5.896;2022-09-03T20:09:45;23.40;46.20
66936;DHT22;53847;51.984;5.896;2022-09-03T20:12:12;23.50;46.30
66936;DHT22;53847;51.984;5.896;2022-09-03T20:14:41;23.50;46.40
66936;DHT22;53847;51.984;5.896;2022-09-03T20:17:32;23.40;47.10
66936;DHT22;53847;51.984;5.896;2022-09-03T20:20:09;23.40;46.80
66936;DHT22;53847;51.984;5.896;2022-09-03T20:25:42;23.30;47.00
66936;DHT22;53847;51.984;5.896;2022-09-03T20:31:21;23.10;47.20
66936;DHT22;53847;51.984;5.896;2022-09-03T20:34:20;23.20;47.30
66936;DHT22;53847;51.984;5.896;2022-09-03T20:42:43;23.20;48.10
66936;DHT22;53847;51.984;5.896;2022-09-03T20:45:19;22.90;48.10
66936;DHT22;53847;51.984;5.896;2022-09-03T20:51:08;22.80;48.50
66936;DHT22;53847;51.984;5.896;2022-09-03T20:55:51;22.80;49.00
66936;DHT22;53847;51.984;5.896;2022-09-03T21:01:05;22.30;49.10
66936;DHT22;53847;51.984;5.896;2022-09-03T21:11:31;22.30;49.50
66936;DHT22;53847;51.984;5.896;2022-09-03T21:20:01;22.40;51.00
66936;DHT22;53847;51.984;5.896;2022-09-03T21:28:07;21.90;51.00
66936;DHT22;53847;51.984;5.896;2022-09-03T21:30:40;22.10;51.20
66936;DHT22;53847;51.984;5.896;2022-09-03T21:33:18;22.10;51.70
66936;DHT22;53847;51.984;5.896;2022-09-03T21:38:26;22.10;51.90
66936;DHT22;53847;51.984;5.896;2022-09-03T21:41:16;22.00;52.00
66936;DHT22;53847;51.984;5.896;2022-09-03T21:47:01;22.00;52.00
66936;DHT22;53847;51.984;5.896;2022-09-03T21:52:43;22.00;52.30
66936;DHT22;53847;51.984;5.896;2022-09-03T21:55:46;21.90;52.30
66936;DHT22;53847;51.984;5.896;2022-09-03T22:04:09;21.70;52.60
66936;DHT22;53847;51.984;5.896;2022-09-03T22:15:02;21.60;52.70
66936;DHT22;53847;51.984;5.896;2022-09-03T22:19:59;21.50;53.00
66936;DHT22;53847;51.984;5.896;2022-09-03T22:22:33;21.80;53.30
66936;DHT22;53847;51.984;5.896;2022-09-03T22:25:14;20.90;53.30
66936;DHT22;53847;51.984;5.896;2022-09-03T22:30:18;21.50;53.50